sensor_id;sensor_type;location;lat;lon;timestamp;P1;durP1;ratioP1;P2;durP2;ratioP2
4323;SDS011;2175;51.018;6.994;2023-06-24T00:01:37;13.20;;;11.00;;
4323;SDS011;2175;51.018;6.994;2023-06-24T00:04:18;14.40;;;10.03;;
4323;SDS011;2175;51.018;6.994;2023-06-24T00:07:23;16.40;;;10.37;;
4323;SDS011;2175;51.018;6.994;2023-06-24T00:10:58;15.03;;;10.00;;
4323;SDS011;2175;51.018;6.994;2023-06-24T00:14:29;17.73;;;10.50;;
4323;SDS011;2175;51.018;6.994;2023-06-24T00:17:22;15.00;;;10.30;;
4323;SDS011;2175;51.018;6.994;2023-06-24T00:20:05;15.63;;;10.20;;
4323;SDS011;2175;51.018;6.994;2023-06-24T00:22:38;12.60;;;10.40;;
4323;SDS011;2175;51.018;6.994;2023-06-24T00:29:21;13.73;;;9.50;;
4323;SDS011;2175;51.018;6.994;2023-06-24T00:31:54;16.60;;;10.40;;
4323;SDS011;2175;51.018;6.994;2023-06-24T00:34:59;13.80;;;9.77;;
4323;SDS011;2175;51.018;6.994;2023-06-24T00:37:28;12.43;;;10.10;;
4323;SDS011;2175;51.018;6.994;2023-06-24T00:40:06;12.60;;;10.10;;
4323;SDS011;2175;51.018;6.994;2023-06-24T00:46:28;14.80;;;10.40;;
4323;SDS011;2175;51.018;6.994;2023-06-24T00:49:54;14.67;;;9.47;;
4323;SDS011;2175;51.018;6.994;2023-06-24T00:52:44;14.23;;;10.63;;
4323;SDS011;2175;51.018;6.994;2023-06-24T00:55:16;12.53;;;10.10;;
4323;SDS011;2175;51.018;6.994;2023-06-24T00:57:54;12.10;;;10.27;;
4323;SDS011;2175;51.018;6.994;2023-06-24T01:00:30;15.43;;;10.37;;
4323;SDS011;2175;51.018;6.994;2023-06-24T01:02:57;13.10;;;10.90;;
4323;SDS011;2175;51.018;6.994;2023-06-24T01:05:24;13.67;;;10.67;;
4323;SDS011;2175;51.018;6.994;2023-06-24T01:07:50;13.23;;;10.53;;
4323;SDS011;2175;51.018;6.994;2023-06-24T01:10:20;18.13;;;10.93;;
4323;SDS011;2175;51.018;6.994;2023-06-24T01:12:47;15.73;;;11.20;;
4323;SDS011;2175;51.018;6.994;2023-06-24T01:15:14;18.07;;;11.80;;
4323;SDS011;2175;51.018;6.994;2023-06-24T01:20:43;14.77;;;10.30;;
4323;SDS011;2175;51.018;6.994;2023-06-24T01:23:33;13.20;;;10.73;;
4323;SDS011;2175;51.018;6.994;2023-06-24T01:37:16;16.50;;;11.63;;
4323;SDS011;2175;51.018;6.994;2023-06-24T01:40:02;13.87;;;11.57;;
4323;SDS011;2175;51.018;6.994;2023-06-24T01:42:37;15.63;;;11.57;;
4323;SDS011;2175;51.018;6.994;2023-06-24T01:45:06;17.47;;;10.77;;
4323;SDS011;2175;51.018;6.994;2023-06-24T01:47:35;18.83;;;10.73;;
4323;SDS011;2175;51.018;6.994;2023-06-24T01:50:04;12.37;;;10.93;;
4323;SDS011;2175;51.018;6.994;2023-06-24T01:52:35;13.93;;;10.90;;
4323;SDS011;2175;51.018;6.994;2023-06-24T01:55:04;13.03;;;11.17;;
4323;SDS011;2175;51.018;6.994;2023-06-24T01:57:33;15.20;;;10.60;;
4323;SDS011;2175;51.018;6.994;2023-06-24T02:00:01;13.20;;;10.60;;
4323;SDS011;2175;51.018;6.994;2023-06-24T02:02:32;18.60;;;12.10;;
4323;SDS011;2175;51.018;6.994;2023-06-24T02:04:58;19.03;;;11.00;;
4323;SDS011;2175;51.018;6.994;2023-06-24T02:07:33;12.17;;;9.93;;
4323;SDS011;2175;51.018;6.994;2023-06-24T02:10:00;13.40;;;10.03;;
4323;SDS011;2175;51.018;6.994;2023-06-24T02:12:28;13.20;;;11.13;;
4323;SDS011;2175;51.018;6.994;2023-06-24T02:14:55;15.43;;;11.13;;
4323;SDS011;2175;51.018;6.994;2023-06-24T02:17:23;17.00;;;10.37;;
4323;SDS011;2175;51.018;6.994;2023-06-24T02:19:51;12.23;;;10.13;;
4323;SDS011;2175;51.018;6.994;2023-06-24T02:22:18;14.33;;;10.83;;
4323;SDS011;2175;51.018;6.994;2023-06-24T02:24:45;17.57;;;10.20;;
4323;SDS011;2175;51.018;6.994;2023-06-24T02:27:13;16.70;;;11.50;;
4323;SDS011;2175;51.018;6.994;2023-06-24T02:29:38;15.70;;;11.20;;
4323;SDS011;2175;51.018;6.994;2023-06-24T02:34:34;12.10;;;10.10;;
4323;SDS011;2175;51.018;6.994;2023-06-24T02:36:59;12.87;;;10.57;;
4323;SDS011;2175;51.018;6.994;2023-06-24T02:39:25;18.40;;;11.17;;
4323;SDS011;2175;51.018;6.994;2023-06-24T02:41:50;13.10;;;9.23;;
4323;SDS011;2175;51.018;6.994;2023-06-24T02:44:16;13.83;;;10.70;;
4323;SDS011;2175;51.018;6.994;2023-06-24T02:46:42;15.60;;;10.30;;
4323;SDS011;2175;51.018;6.994;2023-06-24T02:49:09;13.03;;;9.90;;
4323;SDS011;2175;51.018;6.994;2023-06-24T02:51:38;13.33;;;9.90;;
4323;SDS011;2175;51.018;6.994;2023-06-24T02:54:05;16.50;;;11.60;;
4323;SDS011;2175;51.018;6.994;2023-06-24T02:56:31;16.20;;;11.00;;
4323;SDS011;2175;51.018;6.994;2023-06-24T02:58:57;11.70;;;10.50;;
4323;SDS011;2175;51.018;6.994;2023-06-24T03:01:23;11.93;;;10.50;;
4323;SDS011;2175;51.018;6.994;2023-06-24T03:03:55;15.43;;;10.27;;
4323;SDS011;2175;51.018;6.994;2023-06-24T03:06:22;14.30;;;10.73;;
4323;SDS011;2175;51.018;6.994;2023-06-24T03:08:49;13.60;;;11.57;;
4323;SDS011;2175;51.018;6.994;2023-06-24T03:11:15;12.17;;;10.90;;
4323;SDS011;2175;51.018;6.994;2023-06-24T03:13:41;12.40;;;10.43;;
4323;SDS011;2175;51.018;6.994;2023-06-24T03:16:08;13.73;;;10.33;;
4323;SDS011;2175;51.018;6.994;2023-06-24T03:18:37;13.30;;;10.97;;
4323;SDS011;2175;51.018;6.994;2023-06-24T03:21:05;19.97;;;10.97;;
4323;SDS011;2175;51.018;6.994;2023-06-24T03:23:31;12.73;;;10.20;;
4323;SDS011;2175;51.018;6.994;2023-06-24T03:25:56;11.80;;;10.03;;
4323;SDS011;2175;51.018;6.994;2023-06-24T03:28:22;15.20;;;11.30;;
4323;SDS011;2175;51.018;6.994;2023-06-24T03:30:48;16.10;;;11.13;;
4323;SDS011;2175;51.018;6.994;2023-06-24T03:33:13;16.57;;;10.60;;
4323;SDS011;2175;51.018;6.994;2023-06-24T03:35:41;12.77;;;10.77;;
4323;SDS011;2175;51.018;6.994;2023-06-24T03:38:07;13.40;;;12.00;;
4323;SDS011;2175;51.018;6.994;2023-06-24T03:40:33;15.73;;;10.90;;
4323;SDS011;2175;51.018;6.994;2023-06-24T03:42:59;17.53;;;11.90;;
4323;SDS011;2175;51.018;6.994;2023-06-24T03:45:25;12.30;;;11.10;;
4323;SDS011;2175;51.018;6.994;2023-06-24T03:47:50;12.83;;;10.87;;
4323;SDS011;2175;51.018;6.994;2023-06-24T03:50:16;12.37;;;10.83;;
4323;SDS011;2175;51.018;6.994;2023-06-24T03:52:41;15.73;;;11.80;;
4323;SDS011;2175;51.018;6.994;2023-06-24T03:55:09;13.60;;;11.20;;
4323;SDS011;2175;51.018;6.994;2023-06-24T03:57:34;16.00;;;11.07;;
4323;SDS011;2175;51.018;6.994;2023-06-24T04:00:00;11.90;;;10.70;;
4323;SDS011;2175;51.018;6.994;2023-06-24T04:02:25;15.70;;;11.57;;
4323;SDS011;2175;51.018;6.994;2023-06-24T04:04:52;18.13;;;11.83;;
4323;SDS011;2175;51.018;6.994;2023-06-24T04:07:17;16.10;;;11.90;;
4323;SDS011;2175;51.018;6.994;2023-06-24T04:09:54;23.17;;;11.70;;
4323;SDS011;2175;51.018;6.994;2023-06-24T04:12:20;16.60;;;11.60;;
4323;SDS011;2175;51.018;6.994;2023-06-24T04:14:45;14.53;;;10.90;;
4323;SDS011;2175;51.018;6.994;2023-06-24T04:17:11;12.00;;;10.43;;
4323;SDS011;2175;51.018;6.994;2023-06-24T04:19:36;14.90;;;12.00;;
4323;SDS011;2175;51.018;6.994;2023-06-24T04:22:02;16.83;;;11.23;;
4323;SDS011;2175;51.018;6.994;2023-06-24T04:24:28;16.23;;;11.20;;
4323;SDS011;2175;51.018;6.994;2023-06-24T04:26:53;20.23;;;12.00;;
4323;SDS011;2175;51.018;6.994;2023-06-24T04:29:20;13.60;;;11.13;;
4323;SDS011;2175;51.018;6.994;2023-06-24T04:31:45;16.10;;;12.43;;
4323;SDS011;2175;51.018;6.994;2023-06-24T04:34:11;20.03;;;11.23;;
4323;SDS011;2175;51.018;6.994;2023-06-24T04:36:36;16.63;;;12.20;;
4323;SDS011;2175;51.018;6.994;2023-06-24T04:39:03;18.30;;;12.20;;
4323;SDS011;2175;51.018;6.994;2023-06-24T04:41:29;15.10;;;11.70;;
4323;SDS011;2175;51.018;6.994;2023-06-24T04:43:57;17.77;;;11.93;;
4323;SDS011;2175;51.018;6.994;2023-06-24T04:46:23;16.80;;;11.77;;
4323;SDS011;2175;51.018;6.994;2023-06-24T04:48:48;16.87;;;12.57;;
4323;SDS011;2175;51.018;6.994;2023-06-24T04:51:14;15.03;;;11.00;;
4323;SDS011;2175;51.018;6.994;2023-06-24T04:53:40;15.10;;;11.30;;
4323;SDS011;2175;51.018;6.994;2023-06-24T04:56:06;17.57;;;12.17;;
4323;SDS011;2175;51.018;6.994;2023-06-24T04:58:31;16.07;;;12.93;;
4323;SDS011;2175;51.018;6.994;2023-06-24T05:00:57;18.50;;;11.50;;
4323;SDS011;2175;51.018;6.994;2023-06-24T05:03:24;16.87;;;11.93;;
4323;SDS011;2175;51.018;6.994;2023-06-24T05:05:49;14.87;;;12.40;;
4323;SDS011;2175;51.018;6.994;2023-06-24T05:08:15;17.30;;;12.13;;
4323;SDS011;2175;51.018;6.994;2023-06-24T05:10:40;15.73;;;12.73;;
4323;SDS011;2175;51.018;6.994;2023-06-24T05:13:06;17.03;;;11.73;;
4323;SDS011;2175;51.018;6.994;2023-06-24T05:15:32;14.50;;;12.20;;
4323;SDS011;2175;51.018;6.994;2023-06-24T05:17:57;15.30;;;11.27;;
4323;SDS011;2175;51.018;6.994;2023-06-24T05:20:23;14.40;;;11.07;;
4323;SDS011;2175;51.018;6.994;2023-06-24T05:22:48;18.33;;;11.53;;
4323;SDS011;2175;51.018;6.994;2023-06-24T05:25:14;15.30;;;12.67;;
4323;SDS011;2175;51.018;6.994;2023-06-24T05:27:40;12.67;;;10.87;;
4323;SDS011;2175;51.018;6.994;2023-06-24T05:30:05;13.07;;;10.77;;
4323;SDS011;2175;51.018;6.994;2023-06-24T05:32:31;15.97;;;10.70;;
4323;SDS011;2175;51.018;6.994;2023-06-24T05:34:57;16.73;;;11.77;;
4323;SDS011;2175;51.018;6.994;2023-06-24T05:37:23;14.43;;;11.53;;
4323;SDS011;2175;51.018;6.994;2023-06-24T05:39:48;12.40;;;11.07;;
4323;SDS011;2175;51.018;6.994;2023-06-24T05:42:14;24.03;;;11.23;;
4323;SDS011;2175;51.018;6.994;2023-06-24T05:44:39;14.30;;;10.17;;
4323;SDS011;2175;51.018;6.994;2023-06-24T05:47:05;15.60;;;11.13;;
4323;SDS011;2175;51.018;6.994;2023-06-24T05:49:31;15.73;;;11.43;;
4323;SDS011;2175;51.018;6.994;2023-06-24T05:51:56;14.83;;;10.53;;
4323;SDS011;2175;51.018;6.994;2023-06-24T05:54:22;14.47;;;10.50;;
4323;SDS011;2175;51.018;6.994;2023-06-24T05:56:48;12.63;;;10.80;;
4323;SDS011;2175;51.018;6.994;2023-06-24T05:59:14;14.23;;;11.03;;
4323;SDS011;2175;51.018;6.994;2023-06-24T06:01:39;15.57;;;10.90;;
4323;SDS011;2175;51.018;6.994;2023-06-24T06:04:05;13.60;;;11.10;;
4323;SDS011;2175;51.018;6.994;2023-06-24T06:06:31;14.10;;;11.23;;
4323;SDS011;2175;51.018;6.994;2023-06-24T06:08:56;18.07;;;11.87;;
4323;SDS011;2175;51.018;6.994;2023-06-24T06:11:22;15.83;;;11.13;;
4323;SDS011;2175;51.018;6.994;2023-06-24T06:13:48;13.37;;;11.23;;
4323;SDS011;2175;51.018;6.994;2023-06-24T06:16:14;17.53;;;10.80;;
4323;SDS011;2175;51.018;6.994;2023-06-24T06:18:39;13.23;;;10.27;;
4323;SDS011;2175;51.018;6.994;2023-06-24T06:21:05;13.83;;;10.60;;
4323;SDS011;2175;51.018;6.994;2023-06-24T06:23:30;16.10;;;10.20;;
4323;SDS011;2175;51.018;6.994;2023-06-24T06:25:56;19.27;;;9.87;;
4323;SDS011;2175;51.018;6.994;2023-06-24T06:28:22;17.53;;;10.20;;
4323;SDS011;2175;51.018;6.994;2023-06-24T06:30:47;12.63;;;10.77;;
4323;SDS011;2175;51.018;6.994;2023-06-24T06:33:13;14.33;;;11.70;;
4323;SDS011;2175;51.018;6.994;2023-06-24T06:35:38;13.27;;;11.43;;
4323;SDS011;2175;51.018;6.994;2023-06-24T06:38:04;14.37;;;11.70;;
4323;SDS011;2175;51.018;6.994;2023-06-24T06:40:30;11.37;;;9.70;;
4323;SDS011;2175;51.018;6.994;2023-06-24T06:42:56;15.80;;;11.30;;
4323;SDS011;2175;51.018;6.994;2023-06-24T06:45:21;16.37;;;10.87;;
4323;SDS011;2175;51.018;6.994;2023-06-24T06:47:47;12.77;;;11.47;;
4323;SDS011;2175;51.018;6.994;2023-06-24T06:50:14;14.37;;;11.10;;
4323;SDS011;2175;51.018;6.994;2023-06-24T06:52:39;11.80;;;10.17;;
4323;SDS011;2175;51.018;6.994;2023-06-24T06:55:05;15.60;;;11.27;;
4323;SDS011;2175;51.018;6.994;2023-06-24T06:57:30;17.07;;;11.40;;
4323;SDS011;2175;51.018;6.994;2023-06-24T06:59:56;15.20;;;12.70;;
4323;SDS011;2175;51.018;6.994;2023-06-24T07:02:22;15.33;;;11.27;;
4323;SDS011;2175;51.018;6.994;2023-06-24T07:04:48;12.97;;;10.40;;
4323;SDS011;2175;51.018;6.994;2023-06-24T07:07:15;13.77;;;11.60;;
4323;SDS011;2175;51.018;6.994;2023-06-24T07:09:41;14.23;;;10.87;;
4323;SDS011;2175;51.018;6.994;2023-06-24T07:12:07;15.83;;;11.20;;
4323;SDS011;2175;51.018;6.994;2023-06-24T07:14:33;15.33;;;10.83;;
4323;SDS011;2175;51.018;6.994;2023-06-24T07:16:58;16.33;;;11.27;;
4323;SDS011;2175;51.018;6.994;2023-06-24T07:19:24;11.57;;;9.23;;
4323;SDS011;2175;51.018;6.994;2023-06-24T07:21:51;15.93;;;10.13;;
4323;SDS011;2175;51.018;6.994;2023-06-24T07:24:16;13.67;;;10.03;;
4323;SDS011;2175;51.018;6.994;2023-06-24T07:26:42;15.00;;;10.70;;
4323;SDS011;2175;51.018;6.994;2023-06-24T07:29:08;16.23;;;12.23;;
4323;SDS011;2175;51.018;6.994;2023-06-24T07:31:34;14.97;;;11.60;;
4323;SDS011;2175;51.018;6.994;2023-06-24T07:34:00;17.13;;;11.83;;
4323;SDS011;2175;51.018;6.994;2023-06-24T07:36:26;13.80;;;11.77;;
4323;SDS011;2175;51.018;6.994;2023-06-24T07:38:51;17.87;;;12.50;;
4323;SDS011;2175;51.018;6.994;2023-06-24T07:41:17;18.93;;;12.50;;
4323;SDS011;2175;51.018;6.994;2023-06-24T07:43:43;15.20;;;11.07;;
4323;SDS011;2175;51.018;6.994;2023-06-24T07:46:08;13.97;;;10.73;;
4323;SDS011;2175;51.018;6.994;2023-06-24T07:48:34;14.03;;;10.60;;
4323;SDS011;2175;51.018;6.994;2023-06-24T07:51:00;17.07;;;11.77;;
4323;SDS011;2175;51.018;6.994;2023-06-24T07:53:25;17.80;;;12.03;;
4323;SDS011;2175;51.018;6.994;2023-06-24T07:55:51;13.57;;;11.53;;
4323;SDS011;2175;51.018;6.994;2023-06-24T07:58:16;15.50;;;11.47;;
4323;SDS011;2175;51.018;6.994;2023-06-24T08:00:44;14.10;;;11.40;;
4323;SDS011;2175;51.018;6.994;2023-06-24T08:03:11;13.83;;;11.10;;
4323;SDS011;2175;51.018;6.994;2023-06-24T08:05:37;13.87;;;11.57;;
4323;SDS011;2175;51.018;6.994;2023-06-24T08:08:04;17.07;;;13.43;;
4323;SDS011;2175;51.018;6.994;2023-06-24T08:10:30;16.40;;;12.27;;
4323;SDS011;2175;51.018;6.994;2023-06-24T08:12:56;18.00;;;11.17;;
4323;SDS011;2175;51.018;6.994;2023-06-24T08:15:22;12.77;;;10.40;;
4323;SDS011;2175;51.018;6.994;2023-06-24T08:17:51;14.60;;;9.07;;
4323;SDS011;2175;51.018;6.994;2023-06-24T08:20:18;17.43;;;10.80;;
4323;SDS011;2175;51.018;6.994;2023-06-24T08:22:44;14.07;;;9.80;;
4323;SDS011;2175;51.018;6.994;2023-06-24T08:25:10;15.50;;;12.13;;
4323;SDS011;2175;51.018;6.994;2023-06-24T08:27:36;13.57;;;10.83;;
4323;SDS011;2175;51.018;6.994;2023-06-24T08:30:03;13.33;;;9.50;;
4323;SDS011;2175;51.018;6.994;2023-06-24T08:32:31;17.63;;;10.57;;
4323;SDS011;2175;51.018;6.994;2023-06-24T08:34:57;16.20;;;11.00;;
4323;SDS011;2175;51.018;6.994;2023-06-24T08:39:50;15.27;;;9.80;;
4323;SDS011;2175;51.018;6.994;2023-06-24T08:42:16;14.07;;;10.30;;
4323;SDS011;2175;51.018;6.994;2023-06-24T08:44:42;16.07;;;10.50;;
4323;SDS011;2175;51.018;6.994;2023-06-24T08:47:07;19.33;;;10.30;;
4323;SDS011;2175;51.018;6.994;2023-06-24T08:49:34;14.33;;;9.33;;
4323;SDS011;2175;51.018;6.994;2023-06-24T08:52:11;14.40;;;10.60;;
4323;SDS011;2175;51.018;6.994;2023-06-24T08:54:40;16.90;;;10.37;;
4323;SDS011;2175;51.018;6.994;2023-06-24T08:57:06;15.87;;;9.57;;
4323;SDS011;2175;51.018;6.994;2023-06-24T08:59:33;13.63;;;9.70;;
4323;SDS011;2175;51.018;6.994;2023-06-24T09:02:00;14.60;;;9.07;;
4323;SDS011;2175;51.018;6.994;2023-06-24T09:04:26;14.20;;;10.70;;
4323;SDS011;2175;51.018;6.994;2023-06-24T09:06:51;15.00;;;10.57;;
4323;SDS011;2175;51.018;6.994;2023-06-24T09:09:21;12.90;;;9.60;;
4323;SDS011;2175;51.018;6.994;2023-06-24T09:11:54;15.27;;;10.50;;
4323;SDS011;2175;51.018;6.994;2023-06-24T09:14:22;12.90;;;9.23;;
4323;SDS011;2175;51.018;6.994;2023-06-24T09:16:58;12.40;;;9.33;;
4323;SDS011;2175;51.018;6.994;2023-06-24T09:19:29;14.47;;;10.20;;
4323;SDS011;2175;51.018;6.994;2023-06-24T09:22:04;18.00;;;11.60;;
4323;SDS011;2175;51.018;6.994;2023-06-24T09:24:31;15.00;;;10.20;;
4323;SDS011;2175;51.018;6.994;2023-06-24T09:27:01;13.23;;;10.30;;
4323;SDS011;2175;51.018;6.994;2023-06-24T09:29:28;16.60;;;10.97;;
4323;SDS011;2175;51.018;6.994;2023-06-24T09:31:57;15.50;;;10.40;;
4323;SDS011;2175;51.018;6.994;2023-06-24T09:34:25;16.47;;;10.50;;
4323;SDS011;2175;51.018;6.994;2023-06-24T09:36:55;15.43;;;9.50;;
4323;SDS011;2175;51.018;6.994;2023-06-24T09:39:21;19.00;;;10.50;;
4323;SDS011;2175;51.018;6.994;2023-06-24T09:41:57;12.60;;;9.30;;
4323;SDS011;2175;51.018;6.994;2023-06-24T09:44:27;11.90;;;8.10;;
4323;SDS011;2175;51.018;6.994;2023-06-24T09:46:53;12.00;;;9.13;;
4323;SDS011;2175;51.018;6.994;2023-06-24T09:49:21;10.20;;;7.73;;
4323;SDS011;2175;51.018;6.994;2023-06-24T09:51:47;10.57;;;7.60;;
4323;SDS011;2175;51.018;6.994;2023-06-24T09:54:14;10.77;;;7.20;;
4323;SDS011;2175;51.018;6.994;2023-06-24T09:56:50;10.80;;;6.83;;
4323;SDS011;2175;51.018;6.994;2023-06-24T09:59:18;11.70;;;8.17;;
4323;SDS011;2175;51.018;6.994;2023-06-24T10:01:45;11.60;;;7.20;;
4323;SDS011;2175;51.018;6.994;2023-06-24T10:04:13;10.87;;;6.97;;
4323;SDS011;2175;51.018;6.994;2023-06-24T10:06:42;12.63;;;7.83;;
4323;SDS011;2175;51.018;6.994;2023-06-24T10:09:08;13.97;;;8.70;;
4323;SDS011;2175;51.018;6.994;2023-06-24T10:11:34;10.80;;;7.70;;
4323;SDS011;2175;51.018;6.994;2023-06-24T10:13:59;12.63;;;7.87;;
4323;SDS011;2175;51.018;6.994;2023-06-24T10:16:25;12.90;;;7.33;;
4323;SDS011;2175;51.018;6.994;2023-06-24T10:18:51;10.20;;;7.67;;
4323;SDS011;2175;51.018;6.994;2023-06-24T10:21:25;9.27;;;6.00;;
4323;SDS011;2175;51.018;6.994;2023-06-24T10:24:33;16.10;;;7.53;;
4323;SDS011;2175;51.018;6.994;2023-06-24T10:27:04;9.13;;;6.67;;
4323;SDS011;2175;51.018;6.994;2023-06-24T10:29:34;7.20;;;5.60;;
4323;SDS011;2175;51.018;6.994;2023-06-24T10:32:02;9.40;;;4.87;;
4323;SDS011;2175;51.018;6.994;2023-06-24T10:37:03;6.13;;;4.13;;
4323;SDS011;2175;51.018;6.994;2023-06-24T10:39:38;5.73;;;4.30;;
4323;SDS011;2175;51.018;6.994;2023-06-24T10:42:47;5.30;;;4.50;;
4323;SDS011;2175;51.018;6.994;2023-06-24T10:44:55;6.03;;;4.87;;
4323;SDS011;2175;51.018;6.994;2023-06-24T10:47:21;7.30;;;4.80;;
4323;SDS011;2175;51.018;6.994;2023-06-24T10:49:48;9.40;;;5.03;;
4323;SDS011;2175;51.018;6.994;2023-06-24T10:52:13;6.17;;;4.03;;
4323;SDS011;2175;51.018;6.994;2023-06-24T10:54:40;7.83;;;5.00;;
4323;SDS011;2175;51.018;6.994;2023-06-24T10:57:06;5.83;;;4.60;;
4323;SDS011;2175;51.018;6.994;2023-06-24T11:02:30;6.50;;;5.23;;
4323;SDS011;2175;51.018;6.994;2023-06-24T11:05:04;7.60;;;5.03;;
4323;SDS011;2175;51.018;6.994;2023-06-24T11:07:34;7.63;;;4.50;;
4323;SDS011;2175;51.018;6.994;2023-06-24T11:10:19;5.70;;;4.07;;
4323;SDS011;2175;51.018;6.994;2023-06-24T11:12:45;6.93;;;5.30;;
4323;SDS011;2175;51.018;6.994;2023-06-24T11:15:13;5.03;;;4.50;;
4323;SDS011;2175;51.018;6.994;2023-06-24T11:17:39;4.53;;;4.13;;
4323;SDS011;2175;51.018;6.994;2023-06-24T11:20:06;6.67;;;4.40;;
4323;SDS011;2175;51.018;6.994;2023-06-24T11:22:42;6.17;;;4.60;;
4323;SDS011;2175;51.018;6.994;2023-06-24T11:25:15;6.13;;;4.80;;
4323;SDS011;2175;51.018;6.994;2023-06-24T11:27:41;9.13;;;4.40;;
4323;SDS011;2175;51.018;6.994;2023-06-24T11:30:07;6.80;;;4.50;;
4323;SDS011;2175;51.018;6.994;2023-06-24T11:32:40;8.10;;;4.23;;
4323;SDS011;2175;51.018;6.994;2023-06-24T11:35:16;7.70;;;4.30;;
4323;SDS011;2175;51.018;6.994;2023-06-24T11:37:42;5.20;;;3.97;;
4323;SDS011;2175;51.018;6.994;2023-06-24T11:40:12;10.20;;;4.93;;
4323;SDS011;2175;51.018;6.994;2023-06-24T11:42:41;6.90;;;3.93;;
4323;SDS011;2175;51.018;6.994;2023-06-24T11:45:10;7.10;;;4.80;;
4323;SDS011;2175;51.018;6.994;2023-06-24T11:47:37;5.20;;;4.23;;
4323;SDS011;2175;51.018;6.994;2023-06-24T11:50:08;5.23;;;4.03;;
4323;SDS011;2175;51.018;6.994;2023-06-24T11:52:41;8.03;;;4.43;;
4323;SDS011;2175;51.018;6.994;2023-06-24T11:55:13;5.60;;;4.47;;
4323;SDS011;2175;51.018;6.994;2023-06-24T12:00:19;5.97;;;4.33;;
4323;SDS011;2175;51.018;6.994;2023-06-24T12:02:49;6.17;;;4.30;;
4323;SDS011;2175;51.018;6.994;2023-06-24T12:05:25;6.83;;;5.07;;
4323;SDS011;2175;51.018;6.994;2023-06-24T12:07:56;9.93;;;5.40;;
4323;SDS011;2175;51.018;6.994;2023-06-24T12:10:24;9.97;;;4.73;;
4323;SDS011;2175;51.018;6.994;2023-06-24T12:12:50;6.30;;;4.70;;
4323;SDS011;2175;51.018;6.994;2023-06-24T12:15:16;6.67;;;4.93;;
4323;SDS011;2175;51.018;6.994;2023-06-24T12:17:42;7.10;;;4.23;;
4323;SDS011;2175;51.018;6.994;2023-06-24T12:20:08;8.47;;;4.53;;
4323;SDS011;2175;51.018;6.994;2023-06-24T12:22:35;5.60;;;4.17;;
4323;SDS011;2175;51.018;6.994;2023-06-24T12:25:01;5.73;;;4.03;;
4323;SDS011;2175;51.018;6.994;2023-06-24T12:27:27;11.47;;;6.30;;
4323;SDS011;2175;51.018;6.994;2023-06-24T12:29:53;6.10;;;3.97;;
4323;SDS011;2175;51.018;6.994;2023-06-24T12:32:19;8.90;;;4.40;;
4323;SDS011;2175;51.018;6.994;2023-06-24T12:34:45;6.47;;;4.60;;
4323;SDS011;2175;51.018;6.994;2023-06-24T12:37:11;10.70;;;4.33;;
4323;SDS011;2175;51.018;6.994;2023-06-24T12:39:36;5.17;;;3.87;;
4323;SDS011;2175;51.018;6.994;2023-06-24T12:42:02;6.53;;;4.33;;
4323;SDS011;2175;51.018;6.994;2023-06-24T12:44:27;6.27;;;4.80;;
4323;SDS011;2175;51.018;6.994;2023-06-24T12:46:53;5.33;;;4.70;;
4323;SDS011;2175;51.018;6.994;2023-06-24T12:49:19;5.10;;;4.50;;
4323;SDS011;2175;51.018;6.994;2023-06-24T12:51:44;7.00;;;5.00;;
4323;SDS011;2175;51.018;6.994;2023-06-24T12:54:10;7.20;;;4.57;;
4323;SDS011;2175;51.018;6.994;2023-06-24T12:56:36;6.30;;;4.70;;
4323;SDS011;2175;51.018;6.994;2023-06-24T12:59:01;6.70;;;4.80;;
4323;SDS011;2175;51.018;6.994;2023-06-24T13:01:27;8.57;;;4.50;;
4323;SDS011;2175;51.018;6.994;2023-06-24T13:24:06;20.77;;;9.27;;
4323;SDS011;2175;51.018;6.994;2023-06-24T13:26:32;11.60;;;5.90;;
4323;SDS011;2175;51.018;6.994;2023-06-24T13:28:58;11.07;;;5.17;;
4323;SDS011;2175;51.018;6.994;2023-06-24T13:31:23;9.77;;;6.10;;
4323;SDS011;2175;51.018;6.994;2023-06-24T13:33:50;11.33;;;6.73;;
4323;SDS011;2175;51.018;6.994;2023-06-24T13:36:29;8.20;;;5.07;;
4323;SDS011;2175;51.018;6.994;2023-06-24T13:39:05;6.00;;;4.60;;
4323;SDS011;2175;51.018;6.994;2023-06-24T13:41:31;11.77;;;6.80;;
4323;SDS011;2175;51.018;6.994;2023-06-24T13:43:58;6.60;;;5.07;;
4323;SDS011;2175;51.018;6.994;2023-06-24T13:46:25;6.00;;;4.30;;
4323;SDS011;2175;51.018;6.994;2023-06-24T13:48:50;18.93;;;9.60;;
4323;SDS011;2175;51.018;6.994;2023-06-24T13:51:17;7.50;;;5.20;;
4323;SDS011;2175;51.018;6.994;2023-06-24T13:53:44;6.70;;;4.80;;
4323;SDS011;2175;51.018;6.994;2023-06-24T13:56:10;14.50;;;6.33;;
4323;SDS011;2175;51.018;6.994;2023-06-24T13:58:36;5.80;;;4.70;;
4323;SDS011;2175;51.018;6.994;2023-06-24T14:01:01;17.30;;;8.53;;
4323;SDS011;2175;51.018;6.994;2023-06-24T14:03:28;6.87;;;4.67;;
4323;SDS011;2175;51.018;6.994;2023-06-24T14:05:53;5.40;;;4.27;;
4323;SDS011;2175;51.018;6.994;2023-06-24T14:08:19;10.50;;;4.90;;
4323;SDS011;2175;51.018;6.994;2023-06-24T14:10:45;5.90;;;4.43;;
4323;SDS011;2175;51.018;6.994;2023-06-24T14:13:10;7.70;;;4.50;;
4323;SDS011;2175;51.018;6.994;2023-06-24T14:15:36;6.63;;;4.50;;
4323;SDS011;2175;51.018;6.994;2023-06-24T14:18:01;7.40;;;4.67;;
4323;SDS011;2175;51.018;6.994;2023-06-24T14:20:27;5.80;;;4.57;;
4323;SDS011;2175;51.018;6.994;2023-06-24T14:22:53;6.80;;;4.47;;
4323;SDS011;2175;51.018;6.994;2023-06-24T14:25:18;10.37;;;4.90;;
4323;SDS011;2175;51.018;6.994;2023-06-24T14:27:44;5.40;;;4.43;;
4323;SDS011;2175;51.018;6.994;2023-06-24T14:30:10;7.00;;;4.77;;
4323;SDS011;2175;51.018;6.994;2023-06-24T14:32:37;7.50;;;4.00;;
4323;SDS011;2175;51.018;6.994;2023-06-24T14:35:02;5.57;;;3.90;;
4323;SDS011;2175;51.018;6.994;2023-06-24T14:37:28;8.40;;;5.90;;
4323;SDS011;2175;51.018;6.994;2023-06-24T14:39:54;15.30;;;7.10;;
4323;SDS011;2175;51.018;6.994;2023-06-24T14:42:19;5.77;;;4.30;;
4323;SDS011;2175;51.018;6.994;2023-06-24T14:44:45;9.40;;;4.17;;
4323;SDS011;2175;51.018;6.994;2023-06-24T14:47:11;9.23;;;6.00;;
4323;SDS011;2175;51.018;6.994;2023-06-24T14:49:37;9.10;;;5.43;;
4323;SDS011;2175;51.018;6.994;2023-06-24T14:52:03;6.87;;;4.30;;
4323;SDS011;2175;51.018;6.994;2023-06-24T14:54:29;6.67;;;3.87;;
4323;SDS011;2175;51.018;6.994;2023-06-24T14:56:54;7.97;;;4.90;;
4323;SDS011;2175;51.018;6.994;2023-06-24T14:59:20;8.73;;;4.80;;
4323;SDS011;2175;51.018;6.994;2023-06-24T15:01:45;13.50;;;6.27;;
4323;SDS011;2175;51.018;6.994;2023-06-24T15:04:11;18.43;;;7.30;;
4323;SDS011;2175;51.018;6.994;2023-06-24T15:06:36;7.23;;;4.10;;
4323;SDS011;2175;51.018;6.994;2023-06-24T15:09:02;6.80;;;4.50;;
4323;SDS011;2175;51.018;6.994;2023-06-24T15:11:28;12.90;;;4.27;;
4323;SDS011;2175;51.018;6.994;2023-06-24T15:13:53;6.13;;;4.13;;
4323;SDS011;2175;51.018;6.994;2023-06-24T15:16:19;6.00;;;3.53;;
4323;SDS011;2175;51.018;6.994;2023-06-24T15:18:45;13.03;;;5.37;;
4323;SDS011;2175;51.018;6.994;2023-06-24T15:21:12;11.10;;;6.20;;
4323;SDS011;2175;51.018;6.994;2023-06-24T15:23:38;5.47;;;3.73;;
4323;SDS011;2175;51.018;6.994;2023-06-24T15:26:04;6.50;;;4.23;;
4323;SDS011;2175;51.018;6.994;2023-06-24T15:28:29;6.00;;;3.90;;
4323;SDS011;2175;51.018;6.994;2023-06-24T15:30:55;3.73;;;3.30;;
4323;SDS011;2175;51.018;6.994;2023-06-24T15:33:23;5.53;;;3.33;;
4323;SDS011;2175;51.018;6.994;2023-06-24T15:35:49;15.17;;;7.97;;
4323;SDS011;2175;51.018;6.994;2023-06-24T15:38:14;8.07;;;5.30;;
4323;SDS011;2175;51.018;6.994;2023-06-24T15:40:40;5.43;;;3.70;;
4323;SDS011;2175;51.018;6.994;2023-06-24T15:43:06;6.37;;;3.60;;
4323;SDS011;2175;51.018;6.994;2023-06-24T15:45:31;7.40;;;4.60;;
4323;SDS011;2175;51.018;6.994;2023-06-24T15:47:57;9.93;;;4.53;;
4323;SDS011;2175;51.018;6.994;2023-06-24T15:50:23;11.77;;;6.67;;
4323;SDS011;2175;51.018;6.994;2023-06-24T15:52:49;6.60;;;4.27;;
4323;SDS011;2175;51.018;6.994;2023-06-24T15:55:14;5.63;;;3.60;;
4323;SDS011;2175;51.018;6.994;2023-06-24T15:57:40;3.80;;;3.43;;
4323;SDS011;2175;51.018;6.994;2023-06-24T16:00:06;5.50;;;3.77;;